Time;durP1;ratioP1;P1;durP2;ratioP2;P2;SDS_P1;SDS_P2;PMS_P1;PMS_P2;Temp;Humidity;BMP_temperature;BMP_pressure;BME280_temperature;BME280_humidity;BME280_pressure;Samples;Min_cycle;Max_cycle;Signal;HPM_P1;HPM_P2
2021/12/15 00:01:41;;;;;;;13.70;13.30;;;21.40;72.50;;;;;;5050513;28;20452;-50
2021/12/15 00:04:08;;;;;;;13.50;13.10;;;21.30;72.60;;;;;;5050559;28;20483;-50
2021/12/15 00:06:37;;;;;;;13.87;13.37;;;21.30;73.10;;;;;;5050755;28;20824;-49
2021/12/15 00:09:07;;;;;;;13.60;13.20;;;21.30;73.60;;;;;;5051102;28;20440;-50
2021/12/15 00:11:36;;;;;;;12.80;12.40;;;21.30;73.70;;;;;;5053098;28;20440;-49
2021/12/15 00:14:05;;;;;;;14.20;13.70;;;21.30;74.10;;;;;;5054348;28;20860;-49
2021/12/15 00:16:32;;;;;;;13.83;13.33;;;21.20;74.30;;;;;;5054296;28;20448;-49
2021/12/15 00:18:59;;;;;;;13.30;12.90;;;21.10;74.70;;;;;;5054549;28;20444;-48
2021/12/15 00:21:27;;;;;;;13.40;13.00;;;21.00;75.10;;;;;;5054332;28;20972;-47
2021/12/15 00:23:56;;;;;;;14.40;13.90;;;21.00;76.30;;;;;;5054223;28;20482;-48
2021/12/15 00:26:24;;;;;;;13.83;13.43;;;20.90;76.00;;;;;;5053863;28;20487;-53
2021/12/15 00:28:51;;;;;;;13.83;13.43;;;20.90;76.30;;;;;;5054089;28;20841;-50
2021/12/15 00:31:19;;;;;;;13.50;13.10;;;20.90;76.60;;;;;;5054495;28;20488;-50
2021/12/15 00:33:46;;;;;;;12.90;12.50;;;20.90;76.60;;;;;;5053967;28;20816;-48
2021/12/15 00:36:14;;;;;;;13.70;13.30;;;20.90;76.90;;;;;;5053123;28;20963;-50
2021/12/15 00:38:43;;;;;;;13.60;13.20;;;20.90;77.00;;;;;;5054129;28;20468;-50
2021/12/15 00:41:11;;;;;;;13.47;13.07;;;20.80;77.30;;;;;;5053687;28;20522;-52
2021/12/15 00:43:39;;;;;;;13.87;13.47;;;20.80;77.30;;;;;;5053561;28;20484;-49
2021/12/15 00:46:07;;;;;;;13.23;12.83;;;20.80;77.50;;;;;;5053885;28;20460;-49
2021/12/15 00:48:35;;;;;;;13.80;13.30;;;20.80;77.80;;;;;;5053806;28;20476;-49
2021/12/15 00:51:02;;;;;;;13.50;13.10;;;20.70;78.10;;;;;;5053808;28;20444;-50
2021/12/15 00:53:30;;;;;;;13.67;13.23;;;20.70;78.40;;;;;;5053235;28;20441;-51
2021/12/15 00:55:57;;;;;;;13.27;12.87;;;20.60;78.80;;;;;;5053853;28;20466;-50
2021/12/15 00:58:25;;;;;;;13.70;13.30;;;20.60;79.00;;;;;;5033899;28;20515;-51
2021/12/15 01:00:57;;;;;;;14.50;14.00;;;20.60;79.70;;;;;;5048850;28;20824;-52
2021/12/15 01:03:24;;;;;;;14.00;13.50;;;20.50;79.80;;;;;;5053280;28;20819;-52
2021/12/15 01:05:57;;;;;;;14.23;13.83;;;20.50;80.20;;;;;;5053867;28;20948;-53
2021/12/15 01:08:29;;;;;;;13.93;13.50;;;20.50;80.30;;;;;;5033609;28;20492;-50
2021/12/15 01:11:07;;;;;;;13.23;12.83;;;20.40;80.70;;;;;;5051363;28;20505;-49
2021/12/15 01:22:11;;;;;;;13.40;13.00;;;20.40;81.80;;;;;;4991397;28;20438;-51
2021/12/15 01:24:38;;;;;;;14.37;13.90;;;20.30;82.20;;;;;;5025562;28;20484;-55
2021/12/15 01:27:05;;;;;;;14.40;13.90;;;20.30;82.50;;;;;;5053088;28;20550;-52
2021/12/15 01:29:33;;;;;;;13.30;12.90;;;20.30;82.70;;;;;;5052992;28;20455;-51
2021/12/15 01:32:01;;;;;;;13.13;12.70;;;20.20;83.00;;;;;;5052583;28;20448;-52
2021/12/15 01:34:27;;;;;;;13.27;12.83;;;20.20;83.20;;;;;;5047489;28;20446;-52
2021/12/15 01:36:54;;;;;;;13.30;12.90;;;20.20;83.60;;;;;;5052962;28;20490;-49
2021/12/15 01:39:21;;;;;;;13.37;12.97;;;20.20;83.90;;;;;;5053120;28;20448;-50
2021/12/15 01:41:48;;;;;;;12.73;12.43;;;20.20;84.00;;;;;;5052547;28;20444;-53
2021/12/15 01:47:03;;;;;;;13.83;13.37;;;20.20;84.30;;;;;;5052842;28;20459;-52
2021/12/15 01:49:36;;;;;;;13.10;12.70;;;20.10;84.60;;;;;;5052967;28;20451;-50
2021/12/15 01:52:08;;;;;;;14.20;13.77;;;20.10;85.00;;;;;;5052668;28;20471;-51
2021/12/15 01:54:37;;;;;;;14.00;13.40;;;20.10;85.00;;;;;;5052724;28;20449;-51
2021/12/15 01:57:05;;;;;;;13.80;13.30;;;20.10;85.20;;;;;;5052373;28;20468;-53
2021/12/15 01:59:32;;;;;;;14.27;13.87;;;20.00;85.40;;;;;;5052604;28;20964;-49
2021/12/15 02:02:02;;;;;;;14.30;13.90;;;20.00;85.90;;;;;;5052267;28;20449;-51
2021/12/15 02:04:29;;;;;;;13.80;13.40;;;20.00;85.80;;;;;;5052299;28;20478;-47
2021/12/15 02:06:56;;;;;;;13.30;12.90;;;20.00;85.70;;;;;;5052453;28;20468;-53
2021/12/15 02:09:45;;;;;;;12.87;12.57;;;20.00;85.90;;;;;;5052418;28;20452;-52
2021/12/15 02:12:14;;;;;;;13.80;13.40;;;19.90;86.10;;;;;;5052076;28;20492;-54
2021/12/15 02:14:41;;;;;;;12.73;12.43;;;19.90;86.50;;;;;;5052181;28;20451;-51
2021/12/15 02:17:09;;;;;;;14.17;13.67;;;19.90;86.50;;;;;;5052173;28;20476;-49
2021/12/15 02:19:36;;;;;;;13.57;13.07;;;19.90;86.50;;;;;;5052153;28;20937;-52
2021/12/15 02:22:05;;;;;;;13.90;13.40;;;19.90;86.60;;;;;;5051927;28;20530;-51
2021/12/15 02:24:34;;;;;;;13.97;13.47;;;19.90;86.70;;;;;;5051808;28;20487;-47
2021/12/15 02:27:02;;;;;;;13.80;13.40;;;19.90;86.90;;;;;;5052046;28;20494;-50
2021/12/15 02:29:34;;;;;;;14.00;13.50;;;19.90;86.90;;;;;;5052091;28;20448;-49
2021/12/15 02:32:11;;;;;;;13.63;13.17;;;19.80;86.90;;;;;;5051870;28;20448;-49
2021/12/15 02:37:25;;;;;;;13.83;13.43;;;19.80;87.40;;;;;;5052093;28;20825;-51
2021/12/15 02:39:55;;;;;;;13.90;13.30;;;19.80;87.50;;;;;;5052013;28;20947;-50
2021/12/15 02:42:24;;;;;;;13.93;13.50;;;19.80;87.70;;;;;;5051188;28;20782;-49
2021/12/15 02:44:51;;;;;;;12.80;12.40;;;19.80;87.70;;;;;;5051511;28;20480;-50
2021/12/15 02:47:21;;;;;;;13.07;12.67;;;19.80;87.90;;;;;;5051279;28;20471;-49
2021/12/15 02:49:49;;;;;;;12.90;12.60;;;19.80;87.90;;;;;;5051835;28;20458;-49
2021/12/15 02:52:16;;;;;;;13.33;12.93;;;19.70;88.00;;;;;;5051414;28;20456;-51
2021/12/15 02:54:44;;;;;;;13.53;13.03;;;19.70;88.10;;;;;;5051071;28;20462;-51
2021/12/15 02:57:12;;;;;;;12.90;12.50;;;19.70;88.00;;;;;;5051382;28;20468;-51
2021/12/15 02:59:51;;;;;;;13.30;12.90;;;19.70;88.20;;;;;;5051564;28;21017;-51
2021/12/15 03:02:42;;;;;;;13.50;13.10;;;19.70;88.40;;;;;;5051351;28;20816;-49
2021/12/15 03:05:14;;;;;;;14.17;13.67;;;19.70;88.60;;;;;;5050574;28;20561;-49
2021/12/15 03:07:47;;;;;;;13.50;13.07;;;19.70;88.50;;;;;;5050304;28;20472;-49
2021/12/15 03:15:38;;;;;;;13.70;13.30;;;19.60;89.10;;;;;;5031795;28;20417;-51
2021/12/15 03:18:08;;;;;;;13.97;13.57;;;19.60;89.60;;;;;;5050992;28;20967;-50
2021/12/15 03:20:38;;;;;;;13.87;13.40;;;19.60;90.00;;;;;;5051476;28;20448;-52
2021/12/15 03:23:07;;;;;;;13.27;12.87;;;19.60;90.30;;;;;;5050932;28;20444;-49
2021/12/15 03:25:35;;;;;;;13.03;12.63;;;19.60;90.60;;;;;;5051322;28;20484;-49
2021/12/15 03:33:54;;;;;;;13.63;13.23;;;19.50;90.80;;;;;;5051096;28;20443;-49
2021/12/15 03:36:36;;;;;;;13.40;13.00;;;19.50;90.90;;;;;;5050726;28;20448;-51
2021/12/15 03:39:04;;;;;;;13.40;13.00;;;19.50;91.10;;;;;;5051112;28;20452;-54
2021/12/15 03:41:32;;;;;;;14.17;13.77;;;19.50;91.20;;;;;;5050691;28;20937;-52
2021/12/15 03:44:00;;;;;;;13.37;12.87;;;19.50;91.30;;;;;;5050414;28;21019;-54
2021/12/15 03:46:27;;;;;;;13.23;12.83;;;19.50;91.40;;;;;;5052759;28;20931;-52
2021/12/15 03:48:54;;;;;;;13.57;13.10;;;19.50;91.80;;;;;;5055228;28;20448;-52
2021/12/15 03:51:21;;;;;;;13.70;13.30;;;19.40;91.30;;;;;;5054932;28;20443;-48
2021/12/15 03:53:48;;;;;;;12.60;12.30;;;19.40;91.40;;;;;;5054823;28;20794;-49
2021/12/15 03:56:16;;;;;;;13.03;12.73;;;19.40;91.40;;;;;;5054644;28;20440;-52
2021/12/15 03:58:46;;;;;;;13.93;13.50;;;19.40;91.90;;;;;;5055024;28;20448;-52
2021/12/15 04:01:15;;;;;;;12.27;11.87;;;19.40;92.20;;;;;;5054908;28;20546;-50
2021/12/15 04:03:46;;;;;;;13.07;12.67;;;19.40;92.60;;;;;;5054695;28;20455;-50
2021/12/15 04:06:16;;;;;;;12.60;12.23;;;19.40;92.90;;;;;;5054619;28;20440;-55
2021/12/15 04:08:43;;;;;;;12.50;12.10;;;19.30;93.20;;;;;;5054777;28;20450;-57
2021/12/15 04:11:14;;;;;;;13.30;12.90;;;19.30;93.30;;;;;;5038515;28;20445;-50
2021/12/15 04:13:42;;;;;;;13.40;13.00;;;19.30;93.50;;;;;;5037925;28;20436;-52
2021/12/15 04:16:25;;;;;;;12.40;12.10;;;19.40;93.70;;;;;;5054683;28;20447;-52
2021/12/15 04:18:52;;;;;;;12.87;12.47;;;19.30;93.70;;;;;;5054647;28;20578;-50
2021/12/15 04:21:19;;;;;;;12.40;12.10;;;19.30;93.90;;;;;;5054587;28;20818;-50
2021/12/15 04:23:50;;;;;;;12.27;11.97;;;19.30;94.10;;;;;;5054304;28;20953;-52
2021/12/15 04:26:17;;;;;;;13.30;12.90;;;19.30;94.30;;;;;;5047498;28;20487;-54
2021/12/15 04:28:44;;;;;;;13.70;13.27;;;19.30;94.40;;;;;;5034496;28;20444;-52
2021/12/15 04:31:18;;;;;;;13.10;12.70;;;19.30;94.50;;;;;;5034534;28;20466;-52
2021/12/15 04:33:50;;;;;;;12.73;12.33;;;19.40;94.60;;;;;;5034241;28;20449;-53
2021/12/15 04:36:20;;;;;;;13.47;13.07;;;19.40;94.60;;;;;;5034480;28;20532;-56
2021/12/15 04:38:47;;;;;;;13.80;13.30;;;19.30;94.80;;;;;;5034359;28;20444;-56
2021/12/15 04:41:17;;;;;;;13.00;12.60;;;19.30;94.90;;;;;;5034323;28;20445;-49
2021/12/15 04:43:44;;;;;;;13.40;13.00;;;19.40;95.20;;;;;;5034054;28;20452;-57
2021/12/15 04:46:13;;;;;;;12.87;12.47;;;19.40;95.10;;;;;;5034223;28;20480;-52
2021/12/15 04:48:44;;;;;;;12.90;12.50;;;19.30;95.20;;;;;;5033953;28;20477;-57
2021/12/15 04:51:11;;;;;;;13.60;13.20;;;19.30;95.30;;;;;;5034257;28;20459;-52
2021/12/15 04:53:38;;;;;;;13.60;13.20;;;19.30;95.30;;;;;;5033859;28;20456;-49
2021/12/15 04:56:05;;;;;;;13.90;13.50;;;19.40;95.30;;;;;;5033737;28;20448;-50
2021/12/15 04:58:32;;;;;;;13.90;13.50;;;19.40;95.40;;;;;;5033986;28;20464;-53
2021/12/15 05:01:03;;;;;;;13.50;13.10;;;19.40;95.30;;;;;;5033901;28;20455;-47
2021/12/15 05:03:31;;;;;;;14.57;14.17;;;19.30;95.80;;;;;;5046492;28;20452;-54
2021/12/15 05:05:58;;;;;;;14.40;13.90;;;19.30;95.90;;;;;;5053792;28;20843;-48
2021/12/15 05:08:25;;;;;;;13.27;12.90;;;19.30;96.20;;;;;;5053734;28;20464;-49
2021/12/15 05:10:55;;;;;;;12.67;12.37;;;19.30;96.20;;;;;;5053346;28;20444;-49
2021/12/15 05:13:22;;;;;;;14.07;13.67;;;19.20;96.50;;;;;;5053318;28;20444;-51
2021/12/15 05:15:49;;;;;;;13.40;13.00;;;19.20;96.60;;;;;;5052863;28;20803;-52
2021/12/15 05:18:16;;;;;;;13.13;12.80;;;19.30;96.70;;;;;;5053239;28;20460;-52
2021/12/15 05:20:48;;;;;;;13.57;13.17;;;19.20;96.60;;;;;;5053207;28;20448;-52
2021/12/15 05:23:16;;;;;;;14.17;13.77;;;19.20;96.90;;;;;;5052796;28;20451;-52
2021/12/15 05:25:43;;;;;;;14.23;13.83;;;19.20;97.10;;;;;;5053079;28;20490;-54
2021/12/15 05:28:10;;;;;;;14.50;14.00;;;19.20;97.10;;;;;;5051236;28;20469;-52
2021/12/15 05:30:37;;;;;;;15.50;14.27;;;19.20;99.40;;;;;;5033319;28;20456;-49
2021/12/15 05:33:04;;;;;;;14.10;13.07;;;19.20;99.90;;;;;;5041585;28;20463;-52
2021/12/15 05:35:33;;;;;;;15.83;14.13;;;19.30;99.90;;;;;;5053277;28;20942;-54
2021/12/15 05:38:03;;;;;;;18.73;12.73;;;19.30;99.90;;;;;;5053091;28;20472;-53
2021/12/15 05:40:30;;;;;;;12.37;11.13;;;19.40;99.90;;;;;;5053136;28;20448;-53
2021/12/15 05:42:57;;;;;;;28.17;11.63;;;19.50;99.90;;;;;;5052809;28;20444;-52
2021/12/15 05:45:25;;;;;;;15.70;10.17;;;19.50;99.90;;;;;;5042907;28;20491;-54
2021/12/15 05:47:52;;;;;;;16.47;11.00;;;19.50;99.90;;;;;;5033486;28;20481;-50
2021/12/15 05:50:19;;;;;;;12.07;11.00;;;19.40;99.90;;;;;;5032884;28;20451;-53
2021/12/15 05:52:46;;;;;;;12.43;11.30;;;19.40;99.90;;;;;;5032835;28;20926;-51
2021/12/15 05:55:17;;;;;;;13.30;12.10;;;19.50;99.90;;;;;;5032841;28;20532;-51
2021/12/15 05:57:44;;;;;;;13.77;12.67;;;19.60;99.90;;;;;;5032875;28;20842;-52
2021/12/15 06:00:14;;;;;;;16.20;14.57;;;19.80;99.90;;;;;;5032872;28;20445;-50
2021/12/15 06:02:42;;;;;;;14.50;13.27;;;20.20;99.90;;;;;;5032542;28;20444;-50
2021/12/15 06:05:11;;;;;;;15.87;14.67;;;20.40;99.90;;;;;;5032690;28;20480;-56
2021/12/15 06:07:38;;;;;;;14.63;13.43;;;20.60;99.90;;;;;;5032156;28;20630;-55
2021/12/15 06:10:06;;;;;;;16.57;14.83;;;20.60;99.90;;;;;;5031237;28;20441;-52
2021/12/15 06:12:34;;;;;;;15.60;14.70;;;20.70;99.90;;;;;;5035887;28;20447;-55
2021/12/15 06:15:02;;;;;;;17.20;15.93;;;20.80;99.90;;;;;;5050944;28;20474;-50
2021/12/15 06:17:29;;;;;;;17.63;16.17;;;20.80;99.90;;;;;;5052251;28;20225;-53
2021/12/15 06:19:56;;;;;;;14.77;13.80;;;20.80;99.90;;;;;;5051833;28;20813;-52
2021/12/15 06:22:27;;;;;;;16.53;15.27;;;20.80;99.90;;;;;;5051531;28;20448;-54
2021/12/15 06:24:54;;;;;;;16.10;14.93;;;20.80;99.90;;;;;;5052102;28;20472;-49
2021/12/15 06:27:22;;;;;;;15.73;14.53;;;20.70;99.90;;;;;;5052025;28;20475;-52
2021/12/15 06:29:52;;;;;;;16.80;15.60;;;20.70;99.90;;;;;;5052082;28;20458;-51
2021/12/15 06:32:20;;;;;;;15.67;14.60;;;20.70;99.90;;;;;;5051856;28;20810;-55
2021/12/15 06:34:47;;;;;;;16.60;15.50;;;20.70;99.90;;;;;;5052091;28;20531;-53
2021/12/15 06:37:15;;;;;;;17.10;15.73;;;20.60;99.90;;;;;;5051956;28;20821;-54
2021/12/15 06:39:42;;;;;;;16.63;15.40;;;20.60;99.90;;;;;;5051899;28;20840;-54
2021/12/15 06:42:09;;;;;;;17.10;15.90;;;20.40;99.90;;;;;;5051748;28;20443;-57
2021/12/15 06:44:36;;;;;;;16.43;15.63;;;20.40;99.90;;;;;;5051787;28;20448;-51
2021/12/15 06:47:42;;;;;;;15.80;15.00;;;20.30;99.90;;;;;;5051526;28;20560;-54
2021/12/15 06:58:23;;;;;;;16.37;15.40;;;20.10;99.90;;;;;;5051647;28;20948;-54
2021/12/15 07:00:53;;;;;;;16.03;14.97;;;20.00;99.90;;;;;;5051602;28;20448;-57
2021/12/15 07:03:22;;;;;;;14.90;14.20;;;19.90;99.90;;;;;;5051443;28;20806;-54
2021/12/15 07:05:52;;;;;;;15.63;14.70;;;19.90;99.90;;;;;;5051577;28;20555;-57
2021/12/15 07:08:19;;;;;;;14.67;14.07;;;19.90;99.90;;;;;;5051316;28;20479;-55
2021/12/15 07:10:49;;;;;;;15.70;14.67;;;19.90;99.90;;;;;;5051408;28;20440;-57
2021/12/15 07:13:17;;;;;;;16.03;14.97;;;19.90;99.90;;;;;;5051436;28;20466;-57
2021/12/15 07:15:46;;;;;;;14.77;13.80;;;19.80;99.90;;;;;;5051399;28;20797;-53
2021/12/15 07:18:15;;;;;;;15.13;14.30;;;19.90;99.90;;;;;;5051363;28;20476;-56
2021/12/15 07:20:47;;;;;;;14.03;13.23;;;19.80;99.90;;;;;;5051221;28;20445;-54
2021/12/15 07:23:17;;;;;;;13.70;13.20;;;19.80;99.90;;;;;;5051024;28;20505;-55
2021/12/15 07:25:46;;;;;;;13.10;12.47;;;19.80;99.90;;;;;;5051460;28;20484;-57
2021/12/15 07:28:14;;;;;;;12.90;12.20;;;19.80;99.90;;;;;;5051239;28;20529;-55
2021/12/15 07:30:41;;;;;;;12.40;11.90;;;19.70;99.90;;;;;;5051292;28;20941;-55
2021/12/15 07:33:10;;;;;;;14.13;13.37;;;19.70;99.90;;;;;;5051098;28;20440;-55
2021/12/15 07:35:38;;;;;;;13.13;12.33;;;19.70;99.90;;;;;;5051337;28;20450;-54
2021/12/15 07:38:07;;;;;;;12.33;11.93;;;19.60;99.90;;;;;;5051026;28;20464;-51
2021/12/15 07:40:35;;;;;;;12.83;12.30;;;19.60;99.90;;;;;;5051196;28;20450;-54
2021/12/15 07:43:07;;;;;;;14.17;13.30;;;19.60;99.90;;;;;;5050985;28;20959;-57
2021/12/15 07:45:38;;;;;;;13.67;12.97;;;19.60;99.90;;;;;;5051140;28;20856;-56
2021/12/15 07:48:07;;;;;;;13.00;12.40;;;19.60;99.90;;;;;;5051036;28;20482;-54
2021/12/15 07:50:35;;;;;;;14.10;13.40;;;19.60;99.90;;;;;;5051175;28;20444;-57
2021/12/15 07:53:02;;;;;;;13.67;13.17;;;19.60;99.90;;;;;;5050877;28;20451;-54
2021/12/15 07:55:31;;;;;;;13.30;12.40;;;19.50;99.90;;;;;;5051035;28;20444;-57
2021/12/15 07:57:58;;;;;;;12.70;12.10;;;19.50;99.90;;;;;;5050917;28;20464;-51
2021/12/15 08:00:26;;;;;;;13.00;12.30;;;19.50;99.90;;;;;;5051042;28;20444;-53
2021/12/15 08:02:53;;;;;;;13.00;12.20;;;19.40;99.90;;;;;;5050849;28;20484;-55
2021/12/15 08:05:20;;;;;;;13.03;12.53;;;19.40;99.90;;;;;;5050933;28;20492;-55
2021/12/15 08:07:47;;;;;;;13.00;12.60;;;19.40;99.90;;;;;;5050880;28;20562;-56
2021/12/15 08:10:15;;;;;;;12.60;12.07;;;19.40;99.90;;;;;;5050887;28;20447;-54
2021/12/15 08:12:45;;;;;;;13.10;12.60;;;19.40;99.90;;;;;;5050797;28;20443;-54
2021/12/15 08:15:13;;;;;;;12.27;11.87;;;19.30;99.90;;;;;;5050854;28;20448;-55
2021/12/15 08:17:42;;;;;;;12.90;12.40;;;19.40;99.90;;;;;;5050756;28;21015;-55
2021/12/15 08:20:12;;;;;;;13.20;12.60;;;19.30;99.90;;;;;;5050832;28;20444;-56
2021/12/15 08:22:40;;;;;;;12.60;12.10;;;19.30;99.90;;;;;;5050680;28;20945;-53
2021/12/15 08:25:09;;;;;;;12.23;11.73;;;19.30;99.90;;;;;;5050739;28;20448;-51
2021/12/15 08:27:35;;;;;;;12.50;12.07;;;19.20;99.90;;;;;;5050844;28;20466;-52
2021/12/15 08:30:08;;;;;;;13.37;12.87;;;19.20;99.90;;;;;;5050702;28;20448;-52
2021/12/15 08:32:35;;;;;;;13.73;12.97;;;19.20;99.90;;;;;;5052697;28;20444;-55
2021/12/15 08:35:03;;;;;;;12.80;12.33;;;19.20;99.90;;;;;;5054367;28;20539;-54
2021/12/15 08:37:31;;;;;;;13.27;12.70;;;19.20;99.90;;;;;;5054211;28;20464;-50
2021/12/15 08:39:57;;;;;;;13.23;12.83;;;19.20;99.90;;;;;;5054297;28;20450;-52
2021/12/15 08:42:24;;;;;;;13.03;12.53;;;19.20;99.90;;;;;;5053852;28;20967;-50
2021/12/15 08:44:52;;;;;;;12.70;12.30;;;19.20;99.90;;;;;;5054224;28;20747;-53
2021/12/15 08:47:20;;;;;;;12.10;11.70;;;19.20;99.90;;;;;;5053885;28;20839;-54
2021/12/15 08:49:46;;;;;;;12.67;12.03;;;19.20;99.90;;;;;;5053982;28;20453;-54
2021/12/15 08:52:13;;;;;;;12.80;12.40;;;19.20;99.90;;;;;;5053763;28;21120;-53
2021/12/15 08:54:40;;;;;;;13.40;12.80;;;19.20;99.90;;;;;;5053994;28;20449;-53
2021/12/15 08:57:08;;;;;;;14.33;13.47;;;19.20;99.90;;;;;;5053903;28;20456;-54
2021/12/15 08:59:35;;;;;;;13.37;12.97;;;19.20;99.90;;;;;;5053983;28;20447;-55
2021/12/15 09:02:02;;;;;;;14.03;13.33;;;19.20;99.90;;;;;;5053736;28;20445;-57
2021/12/15 09:04:31;;;;;;;12.80;12.50;;;19.20;99.90;;;;;;5054001;28;20828;-55
2021/12/15 09:06:58;;;;;;;13.47;13.07;;;19.10;99.90;;;;;;5053535;28;20484;-55
2021/12/15 09:09:25;;;;;;;12.80;12.40;;;19.10;99.90;;;;;;5053692;28;20527;-54
2021/12/15 09:11:53;;;;;;;13.27;12.67;;;19.10;99.90;;;;;;5053582;28;20452;-54
2021/12/15 09:14:21;;;;;;;12.60;12.23;;;19.10;99.90;;;;;;5053613;28;20503;-54
2021/12/15 09:16:52;;;;;;;13.67;13.07;;;19.10;99.90;;;;;;5053390;28;20466;-57
2021/12/15 09:19:19;;;;;;;13.27;12.87;;;19.10;99.90;;;;;;5053630;28;21001;-51
2021/12/15 09:21:51;;;;;;;14.10;13.60;;;19.10;99.90;;;;;;5053172;28;20537;-53
2021/12/15 09:24:20;;;;;;;12.87;12.37;;;19.10;99.90;;;;;;5053338;28;20448;-52
2021/12/15 09:26:48;;;;;;;12.40;12.00;;;19.10;99.90;;;;;;5053243;28;20480;-54
2021/12/15 09:29:15;;;;;;;12.33;12.03;;;19.10;99.90;;;;;;5053308;28;20444;-54
2021/12/15 09:31:42;;;;;;;12.93;12.33;;;19.10;99.90;;;;;;5053203;28;20448;-51
2021/12/15 09:34:11;;;;;;;12.87;12.37;;;19.10;99.90;;;;;;5053138;28;20858;-55
2021/12/15 09:36:38;;;;;;;13.37;12.67;;;19.10;99.90;;;;;;5053142;28;20450;-53
2021/12/15 09:39:11;;;;;;;13.77;13.27;;;19.00;99.90;;;;;;5053171;28;20455;-55
2021/12/15 09:41:38;;;;;;;11.90;11.43;;;19.00;99.90;;;;;;5053129;28;20451;-51
2021/12/15 09:44:10;;;;;;;12.60;12.20;;;19.00;99.90;;;;;;5052959;28;20444;-55
2021/12/15 09:47:01;;;;;;;12.93;12.43;;;19.00;99.90;;;;;;5052800;28;20993;-53
2021/12/15 10:03:36;;;;;;;13.37;12.97;;;19.00;99.80;;;;;;5052647;28;20823;-57
2021/12/15 10:06:20;;;;;;;13.20;12.80;;;19.00;99.70;;;;;;5052640;28;20486;-56
2021/12/15 10:11:47;;;;;;;14.00;13.53;;;19.00;99.50;;;;;;5052602;28;20435;-57
2021/12/15 10:17:34;;;;;;;13.00;12.60;;;19.00;99.30;;;;;;4990718;28;20440;-54
2021/12/15 10:20:03;;;;;;;12.60;12.20;;;18.90;99.30;;;;;;4990759;28;20472;-55
2021/12/15 10:22:37;;;;;;;12.87;12.40;;;19.00;99.30;;;;;;5026228;28;20455;-56
2021/12/15 10:25:09;;;;;;;12.43;12.03;;;18.90;99.20;;;;;;5052332;28;20539;-57
2021/12/15 10:27:41;;;;;;;12.47;12.17;;;19.00;99.20;;;;;;5052129;28;20938;-54
2021/12/15 10:30:18;;;;;;;11.60;11.30;;;19.00;99.10;;;;;;5052171;28;20813;-58
2021/12/15 10:32:47;;;;;;;13.17;12.67;;;18.90;99.00;;;;;;5051935;28;20852;-57
2021/12/15 10:35:17;;;;;;;14.30;13.90;;;18.90;98.90;;;;;;5052106;28;20813;-57
2021/12/15 10:38:18;;;;;;;12.80;12.43;;;19.00;98.90;;;;;;5051986;28;20457;-57
2021/12/15 10:40:48;;;;;;;12.70;12.40;;;19.00;98.90;;;;;;5051835;28;20956;-57
2021/12/15 10:43:16;;;;;;;13.97;13.47;;;19.00;98.80;;;;;;5051753;28;20451;-56
2021/12/15 10:45:49;;;;;;;12.77;12.37;;;19.00;98.80;;;;;;5051788;28;20531;-55
2021/12/15 10:48:35;;;;;;;12.90;12.60;;;18.90;98.60;;;;;;5051724;28;20480;-51
2021/12/15 10:51:04;;;;;;;13.17;12.77;;;19.00;98.50;;;;;;5051858;28;20444;-56
2021/12/15 10:53:37;;;;;;;12.80;12.40;;;18.90;98.50;;;;;;5051550;28;20792;-56
2021/12/15 10:56:11;;;;;;;13.90;13.40;;;18.90;98.40;;;;;;5051129;28;20444;-54
2021/12/15 10:58:42;;;;;;;14.00;13.50;;;18.90;98.40;;;;;;5051513;28;20521;-51
2021/12/15 11:01:41;;;;;;;12.70;12.40;;;18.90;98.30;;;;;;5051620;28;20439;-55
2021/12/15 11:04:38;;;;;;;13.33;12.83;;;18.90;98.20;;;;;;5051532;28;20448;-54
2021/12/15 11:07:19;;;;;;;13.47;13.03;;;18.90;98.20;;;;;;5051435;28;21001;-56
2021/12/15 11:09:49;;;;;;;12.77;12.37;;;19.00;98.40;;;;;;5051550;28;20440;-57
2021/12/15 11:12:20;;;;;;;12.30;12.00;;;19.00;98.00;;;;;;5051098;28;20444;-57
2021/12/15 11:14:51;;;;;;;13.60;13.20;;;18.90;98.00;;;;;;5051443;28;20440;-56
2021/12/15 11:17:21;;;;;;;13.47;13.00;;;19.00;98.00;;;;;;5051313;28;20464;-56
2021/12/15 11:19:55;;;;;;;13.57;13.17;;;18.90;97.80;;;;;;5051522;28;20544;-56
2021/12/15 11:22:43;;;;;;;12.80;12.50;;;18.90;97.80;;;;;;5051082;28;20454;-56
2021/12/15 11:25:14;;;;;;;12.80;12.40;;;18.90;97.80;;;;;;5051490;28;20545;-57
2021/12/15 11:27:41;;;;;;;13.07;12.57;;;18.90;97.70;;;;;;5051271;28;20491;-54
2021/12/15 11:30:20;;;;;;;12.63;12.23;;;18.90;97.70;;;;;;5051324;28;20918;-55
2021/12/15 11:32:49;;;;;;;14.03;13.53;;;18.90;97.60;;;;;;5051224;28;20907;-57
2021/12/15 11:35:19;;;;;;;12.80;12.47;;;18.90;97.50;;;;;;5051296;28;20451;-55
2021/12/15 11:37:49;;;;;;;13.30;12.90;;;19.00;97.40;;;;;;5051205;28;20453;-55
2021/12/15 11:40:22;;;;;;;12.77;12.47;;;18.90;97.20;;;;;;5051282;28;20820;-55
2021/12/15 11:42:49;;;;;;;13.93;13.50;;;19.00;97.20;;;;;;5050984;28;20444;-57
2021/12/15 11:45:18;;;;;;;13.50;13.10;;;19.00;97.00;;;;;;5051292;28;20445;-56
2021/12/15 11:47:45;;;;;;;13.67;13.20;;;19.00;96.90;;;;;;5051169;28;20488;-48
2021/12/15 11:50:15;;;;;;;13.60;13.20;;;19.00;96.80;;;;;;5051140;28;20475;-48
2021/12/15 11:52:44;;;;;;;13.67;13.27;;;19.00;96.80;;;;;;5050870;28;20452;-48
2021/12/15 11:55:25;;;;;;;12.80;12.50;;;19.00;96.70;;;;;;5051134;28;20440;-50
2021/12/15 11:57:53;;;;;;;13.70;13.30;;;19.00;96.50;;;;;;5051114;28;20464;-47
2021/12/15 12:00:24;;;;;;;14.40;13.90;;;19.10;96.50;;;;;;5050988;28;20439;-48
2021/12/15 12:02:54;;;;;;;13.17;12.77;;;19.10;96.30;;;;;;5050927;28;20450;-54
2021/12/15 12:05:24;;;;;;;11.97;11.67;;;19.10;96.10;;;;;;5051026;28;20509;-51
2021/12/15 12:07:54;;;;;;;13.03;12.63;;;19.10;96.10;;;;;;5053647;28;20571;-53
2021/12/15 12:10:26;;;;;;;13.37;12.87;;;19.10;96.20;;;;;;5055031;28;20816;-52
2021/12/15 12:13:02;;;;;;;13.67;13.17;;;19.00;96.20;;;;;;5054530;28;20797;-48
2021/12/15 12:15:32;;;;;;;13.07;12.67;;;19.00;96.20;;;;;;5054900;28;20447;-51
2021/12/15 12:18:02;;;;;;;12.80;12.40;;;19.00;96.10;;;;;;5054712;28;20460;-51
2021/12/15 12:20:30;;;;;;;14.13;13.67;;;19.00;96.10;;;;;;5054725;28;20452;-49
2021/12/15 12:23:00;;;;;;;13.63;13.23;;;19.00;96.10;;;;;;5054446;28;20739;-49
2021/12/15 12:25:29;;;;;;;12.97;12.57;;;19.00;96.10;;;;;;5054591;28;20448;-49
2021/12/15 12:27:58;;;;;;;13.07;12.67;;;18.90;96.00;;;;;;5054441;28;20565;-54
2021/12/15 12:30:29;;;;;;;12.80;12.50;;;18.90;96.00;;;;;;5054441;28;20482;-48
2021/12/15 12:32:59;;;;;;;12.60;12.20;;;18.90;95.90;;;;;;5054363;28;20448;-48
2021/12/15 12:35:31;;;;;;;12.70;12.30;;;19.00;95.90;;;;;;5054338;28;20544;-53
2021/12/15 12:38:00;;;;;;;13.37;12.87;;;19.00;95.80;;;;;;5054321;28;20460;-51
2021/12/15 12:40:31;;;;;;;12.30;11.97;;;19.00;95.80;;;;;;5054171;28;20918;-48
2021/12/15 12:42:58;;;;;;;12.83;12.40;;;18.90;95.70;;;;;;5054034;28;20455;-48
2021/12/15 12:45:34;;;;;;;12.83;12.53;;;18.90;95.70;;;;;;5054224;28;20451;-47
2021/12/15 12:48:33;;;;;;;12.70;12.30;;;18.90;95.70;;;;;;5053982;28;21065;-48
2021/12/15 12:59:42;;;;;;;12.63;12.33;;;18.90;95.70;;;;;;5053970;28;20412;-50
2021/12/15 13:02:39;;;;;;;12.50;12.20;;;18.90;95.60;;;;;;5053682;28;20440;-51
2021/12/15 13:05:23;;;;;;;13.23;12.83;;;18.90;95.60;;;;;;5053932;28;20846;-52
2021/12/15 13:07:53;;;;;;;14.77;14.27;;;18.90;95.60;;;;;;5053932;28;20849;-48
2021/12/15 13:10:22;;;;;;;14.13;13.67;;;18.80;95.50;;;;;;5053780;28;21024;-49
2021/12/15 13:12:49;;;;;;;13.77;13.33;;;18.90;95.50;;;;;;5053460;28;20785;-48
2021/12/15 13:15:19;;;;;;;13.90;13.50;;;18.90;95.40;;;;;;5053627;28;20952;-50
2021/12/15 13:17:58;;;;;;;13.63;13.23;;;18.90;95.40;;;;;;5053103;28;20459;-48
2021/12/15 13:20:32;;;;;;;14.00;13.53;;;18.90;95.40;;;;;;5053439;28;20481;-54
2021/12/15 13:23:09;;;;;;;13.53;13.13;;;18.90;95.40;;;;;;5053591;28;20440;-56
2021/12/15 13:28:47;;;;;;;13.37;12.87;;;18.80;95.40;;;;;;5052825;28;20504;-54
2021/12/15 13:31:18;;;;;;;13.47;12.97;;;18.80;95.40;;;;;;5052757;28;21029;-51
2021/12/15 13:33:49;;;;;;;13.23;12.83;;;18.90;98.30;;;;;;5052336;28;20455;-55
2021/12/15 13:36:19;;;;;;;12.57;12.27;;;19.00;99.10;;;;;;5053020;28;20566;-55
2021/12/15 13:38:49;;;;;;;12.60;12.20;;;19.20;99.90;;;;;;5053135;28;20531;-49
2021/12/15 13:41:31;;;;;;;13.73;13.33;;;19.20;99.90;;;;;;5053126;28;20539;-51
2021/12/15 13:44:17;;;;;;;12.70;12.30;;;19.30;99.90;;;;;;5052808;28;20496;-50
2021/12/15 13:46:46;;;;;;;13.10;12.70;;;19.30;99.90;;;;;;5032890;28;20484;-50
2021/12/15 13:49:33;;;;;;;14.13;13.63;;;19.40;99.90;;;;;;5050938;28;20448;-49